createdAt,value
2023-01-30T00:03:25.524Z,39.60
2023-01-30T00:09:27.251Z,39.00
2023-01-30T00:15:29.034Z,39.35
2023-01-30T00:21:30.785Z,40.00
2023-01-30T00:27:32.628Z,41.03
2023-01-30T00:33:36.786Z,46.55
2023-01-30T00:39:38.536Z,41.20
2023-01-30T00:46:01.884Z,42.45
2023-01-30T00:52:04.037Z,42.95
2023-01-30T00:58:06.378Z,40.17
2023-01-30T01:04:10.408Z,41.72
2023-01-30T01:10:16.383Z,42.67
2023-01-30T01:16:28.469Z,42.05
2023-01-30T01:22:33.308Z,46.08
2023-01-30T01:28:35.212Z,44.10
2023-01-30T01:34:37.052Z,41.25
2023-01-30T01:40:57.339Z,45.00
2023-01-30T01:47:00.157Z,43.45
2023-01-30T01:53:02.266Z,45.45
2023-01-30T01:59:19.537Z,42.42
2023-01-30T02:05:21.746Z,45.78
2023-01-30T02:11:31.194Z,45.58
2023-01-30T02:17:33.084Z,48.88
2023-01-30T02:23:59.574Z,44.30
2023-01-30T02:30:23.312Z,50.03
2023-01-30T02:36:38.763Z,50.22
2023-01-30T02:43:21.420Z,47.65
2023-01-30T02:49:47.595Z,54.95
2023-01-30T02:55:49.384Z,60.42
2023-01-30T03:01:54.485Z,58.22
2023-01-30T03:08:18.015Z,54.17
2023-01-30T03:14:30.179Z,61.05
2023-01-30T03:20:37.609Z,57.85
2023-01-30T03:26:55.841Z,60.95
2023-01-30T03:32:57.722Z,64.63
2023-01-30T03:39:00.208Z,66.05
2023-01-30T03:45:02.417Z,61.40
2023-01-30T03:51:04.542Z,54.70
2023-01-30T03:57:06.411Z,55.35
2023-01-30T04:03:09.177Z,58.78
2023-01-30T04:09:11.956Z,58.33
2023-01-30T04:15:20.853Z,59.15
2023-01-30T04:21:45.995Z,59.28
2023-01-30T04:27:48.049Z,64.15
2023-01-30T04:33:53.500Z,67.45
2023-01-30T04:39:55.527Z,64.93
2023-01-30T04:45:58.841Z,66.60
2023-01-30T04:52:01.335Z,73.80
2023-01-30T04:58:03.361Z,70.60
2023-01-30T05:04:07.101Z,63.50
2023-01-30T05:10:09.600Z,64.07
2023-01-30T05:16:12.270Z,71.68
2023-01-30T05:22:14.045Z,65.60
2023-01-30T05:28:15.770Z,63.35
2023-01-30T05:34:17.534Z,63.97
2023-01-30T05:40:19.449Z,53.33
2023-01-30T05:46:21.576Z,57.25
2023-01-30T05:52:23.383Z,53.47
2023-01-30T05:58:26.287Z,54.03
2023-01-30T06:04:28.068Z,56.00
2023-01-30T06:10:29.839Z,48.42
2023-01-30T06:16:31.683Z,48.38
2023-01-30T06:22:33.567Z,46.90
2023-01-30T06:28:36.542Z,39.65
2023-01-30T06:34:38.299Z,35.72
2023-01-30T06:40:41.718Z,32.60
2023-01-30T06:46:43.519Z,30.05
2023-01-30T06:52:50.355Z,28.63
2023-01-30T06:58:52.613Z,27.55
2023-01-30T07:04:54.563Z,22.80
2023-01-30T07:10:56.350Z,24.63
2023-01-30T07:16:58.161Z,24.70
2023-01-30T07:22:59.964Z,24.88
2023-01-30T07:29:01.881Z,24.95
2023-01-30T07:35:05.915Z,29.48
2023-01-30T07:41:07.863Z,30.13
2023-01-30T07:47:09.675Z,29.73
2023-01-30T07:53:16.451Z,21.98
2023-01-30T07:59:18.265Z,21.60
2023-01-30T08:05:20.352Z,20.63
2023-01-30T08:11:22.166Z,21.88
2023-01-30T08:17:24.193Z,20.60
2023-01-30T08:23:25.985Z,20.83
2023-01-30T08:29:27.797Z,15.85
2023-01-30T08:35:29.639Z,16.60
2023-01-30T08:41:31.423Z,10.75
2023-01-30T08:47:35.542Z,16.08
2023-01-30T08:53:37.491Z,13.00
2023-01-30T08:59:39.300Z,16.73
2023-01-30T09:05:41.134Z,16.20
2023-01-30T09:11:42.904Z,10.65
2023-01-30T09:17:45.059Z,14.00
2023-01-30T09:23:46.851Z,14.75
2023-01-30T09:29:48.842Z,16.20
2023-01-30T09:35:51.325Z,11.75
2023-01-30T09:42:05.184Z,14.18
2023-01-30T09:48:19.565Z,15.75
2023-01-30T09:54:26.390Z,14.65
2023-01-30T10:00:35.904Z,22.27
2023-01-30T10:06:48.676Z,14.85
2023-01-30T10:12:57.460Z,14.60
2023-01-30T10:19:09.727Z,12.25
2023-01-30T10:25:23.172Z,24.88
2023-01-30T10:31:30.859Z,13.88
2023-01-30T10:37:42.201Z,19.27
2023-01-30T10:44:13.493Z,19.77
2023-01-30T10:50:42.469Z,19.85
2023-01-30T10:57:03.291Z,16.42
2023-01-30T11:03:20.647Z,18.40
2023-01-30T11:09:24.610Z,16.02
2023-01-30T11:15:40.137Z,13.40
2023-01-30T11:21:44.713Z,18.42
2023-01-30T11:28:14.041Z,7.05
2023-01-30T11:34:18.269Z,22.40
2023-01-30T11:40:25.797Z,30.63
2023-01-30T11:52:38.127Z,20.10
2023-01-30T11:58:42.337Z,21.95
2023-01-30T12:04:45.729Z,21.10
2023-01-30T12:10:57.587Z,27.52
2023-01-30T12:17:04.767Z,17.77
2023-01-30T12:23:44.899Z,14.75
2023-01-30T12:29:59.212Z,20.95
2023-01-30T12:36:06.605Z,20.20
2023-01-30T12:42:33.221Z,24.38
2023-01-30T12:48:52.443Z,17.15
2023-01-30T12:55:37.355Z,29.38
2023-01-30T13:01:43.316Z,20.13
2023-01-30T13:08:00.699Z,20.48
2023-01-30T13:14:19.905Z,22.40
2023-01-30T13:20:38.338Z,22.75
2023-01-30T13:26:42.111Z,24.73
2023-01-30T13:32:48.994Z,22.25
2023-01-30T13:39:02.915Z,26.20
2023-01-30T13:45:06.358Z,19.67
2023-01-30T13:51:49.964Z,25.70
2023-01-30T13:58:21.827Z,25.90
2023-01-30T14:04:41.811Z,18.52
2023-01-30T14:10:44.060Z,18.35
2023-01-30T14:16:55.079Z,22.33
2023-01-30T14:22:58.899Z,15.15
2023-01-30T14:29:00.664Z,15.35
2023-01-30T14:35:02.475Z,15.27
2023-01-30T14:41:04.235Z,17.88
2023-01-30T14:47:33.864Z,15.18
2023-01-30T14:54:00.845Z,18.48
2023-01-30T15:00:17.991Z,19.58
2023-01-30T15:06:26.326Z,12.95
2023-01-30T15:12:59.231Z,12.30
2023-01-30T15:19:39.577Z,18.88
2023-01-30T15:26:21.553Z,18.95
2023-01-30T15:32:26.181Z,17.27
2023-01-30T15:38:34.307Z,16.17
2023-01-30T15:45:02.402Z,17.73
2023-01-30T15:57:06.512Z,19.98
2023-01-30T16:03:13.720Z,17.38
2023-01-30T16:09:24.359Z,21.35
2023-01-30T16:15:54.831Z,19.50
2023-01-30T16:22:00.265Z,16.00
2023-01-30T16:28:02.120Z,19.08
2023-01-30T16:34:04.993Z,18.38
2023-01-30T16:40:21.690Z,19.67
2023-01-30T16:46:47.165Z,20.77
2023-01-30T16:52:55.199Z,11.60
2023-01-30T16:59:00.557Z,17.25
2023-01-30T17:05:14.533Z,28.45
2023-01-30T17:11:39.006Z,20.15
2023-01-30T17:17:44.304Z,17.90
2023-01-30T17:23:50.773Z,15.55
2023-01-30T17:29:52.539Z,16.38
2023-01-30T17:35:54.432Z,26.02
2023-01-30T17:41:56.214Z,17.67
2023-01-30T17:47:58.160Z,21.13
2023-01-30T17:54:00.098Z,17.00
2023-01-30T18:00:02.124Z,17.27
2023-01-30T18:06:13.849Z,23.60
2023-01-30T18:12:15.672Z,22.10
2023-01-30T18:18:18.185Z,23.45
2023-01-30T18:24:20.433Z,24.35
2023-01-30T18:30:24.938Z,19.52
2023-01-30T18:36:26.734Z,22.30
2023-01-30T18:42:28.992Z,21.02
2023-01-30T18:48:32.216Z,16.85
2023-01-30T18:54:34.052Z,25.77
2023-01-30T19:00:35.859Z,24.52
2023-01-30T19:06:40.253Z,26.05
2023-01-30T19:13:20.410Z,26.77
2023-01-30T19:19:22.365Z,17.73
2023-01-30T19:25:24.643Z,16.20
2023-01-30T19:31:26.586Z,22.48
2023-01-30T19:37:28.481Z,20.40
2023-01-30T19:43:30.318Z,22.17
2023-01-30T19:49:35.095Z,23.42
2023-01-30T19:55:37.611Z,18.75
2023-01-30T20:01:40.620Z,19.55
2023-01-30T20:07:42.579Z,14.90
2023-01-30T20:13:46.655Z,21.52
2023-01-30T20:19:48.483Z,23.17
2023-01-30T20:25:50.312Z,22.05
2023-01-30T20:31:55.295Z,20.23
2023-01-30T20:37:57.146Z,21.83
2023-01-30T20:43:59.467Z,22.67
2023-01-30T20:50:01.300Z,30.60
2023-01-30T20:56:04.921Z,24.75
2023-01-30T21:02:06.740Z,28.63
2023-01-30T21:08:08.634Z,29.58
2023-01-30T21:14:10.584Z,27.65
2023-01-30T21:20:12.589Z,32.25
2023-01-30T21:26:16.221Z,36.03
2023-01-30T21:32:19.045Z,34.25
2023-01-30T21:38:39.528Z,29.50
2023-01-30T21:44:41.399Z,27.60
2023-01-30T21:50:43.295Z,30.05
2023-01-30T21:56:45.808Z,26.35
2023-01-30T22:02:50.425Z,25.52
2023-01-30T22:08:56.597Z,23.38
2023-01-30T22:14:58.478Z,27.63
2023-01-30T22:21:11.094Z,21.48
2023-01-30T22:27:13.095Z,26.30
2023-01-30T22:33:15.121Z,15.15
2023-01-30T22:39:16.969Z,18.77
2023-01-30T22:45:19.199Z,24.40
2023-01-30T22:51:26.679Z,27.92
2023-01-30T22:57:28.471Z,25.58
2023-01-30T23:03:30.430Z,26.25
2023-01-30T23:09:32.322Z,22.80
2023-01-30T23:15:42.708Z,30.88
2023-01-30T23:21:45.880Z,35.67
2023-01-30T23:27:47.740Z,30.25
2023-01-30T23:33:56.663Z,30.33
2023-01-30T23:39:58.437Z,27.27
2023-01-30T23:46:12.499Z,20.92
2023-01-30T23:52:14.610Z,22.70
2023-01-30T23:58:16.436Z,25.20
